KBDR/BDR METAR and TAF weather

Enter ICAO airport designator
Station Type Date Time Source
KBDR METAR 2021/09/28 16:52 UTC NOAA

KBDR 281652Z 24009KT 9SM -RA FEW070 SCT090 OVC110 20/17 A2986 RMK AO2 LTG DSNT NE-SE SLP112 TS W MOV E P0003 T02000167


Station Type Date Time Source
KBDR Decoded METAR 2021/09/28 16:52 UTC NOAA

SIKORSKY MEMORIAL AIRPORT, CT, United States (KBDR) 41-10N 073-08W 7M
Sep 28, 2021 - 12:52 PM EDT / 2021.09.28 1652 UTC
Wind: from the WSW (240 degrees) at 10 MPH (9 KT):0
Visibility: 9 mile(s):0
Sky conditions: overcast
Weather: light rain; Lightning observed
Precipitation last hour: 0.03 inches
Temperature: 68.0 F (20.0 C)
Dew Point: 62.1 F (16.7 C)
Relative Humidity: 81%
Pressure (altimeter): 29.86 in. Hg (1011 hPa)
ob: KBDR 281652Z 24009KT 9SM -RA FEW070 SCT090 OVC110 20/17 A2986 RMK AO2 LTG DSNT NE-SE SLP112 TS W MOV E P0003 T02000167
cycle: 17

Station Type Date Time Source
KBDR TAF 2021/09/28 15:33 UTC NOAA

TAF
AMD KBDR 281431Z 2815/2912 25010KT P6SM VCSH FEW035 SCT070 BKN120
TEMPO 2815/2817 3SM TSRA BR BKN025 BKN035CB
FM281700 26010KT P6SM VCTS BKN035CB
TEMPO 2819/2821 5SM -TSRA BKN025CB
FM290000 33010KT P6SM BKN050
FM290400 35010G16KT P6SM SCT050 SCT150

Example: see airport list